Time;durP1;ratioP1;P1;durP2;ratioP2;P2;SDS_P1;SDS_P2;PMS_P1;PMS_P2;Temp;Humidity;BMP_temperature;BMP_pressure;BME280_temperature;BME280_humidity;BME280_pressure;Samples;Min_cycle;Max_cycle;Signal;HPM_P1;HPM_P2
2022/06/21 00:05:11;;;;;;;7.55;4.10;;;;;;;20.01;65.57;98377.84;1719985;82;21114;-90
2022/06/21 00:34:30;;;;;;;8.20;4.65;;;;;;;19.54;66.58;98379.09;1693946;81;21217;-88
2022/06/21 00:44:56;;;;;;;12.28;4.90;;;;;;;19.46;66.34;98376.17;1672032;83;21285;-88
2022/06/21 00:54:48;;;;;;;9.00;4.83;;;;;;;19.32;67.20;98372.36;1673048;79;21138;-88
2022/06/21 01:03:43;;;;;;;12.20;5.97;;;;;;;19.21;68.20;98356.02;1665556;79;21127;-88
2022/06/21 01:06:42;;;;;;;9.65;4.78;;;;;;;19.19;67.33;98365.34;1708193;83;21052;-88
2022/06/21 01:18:45;;;;;;;8.60;5.17;;;;;;;19.06;69.09;98350.08;1716831;80;21036;-88
2022/06/21 01:30:59;;;;;;;9.60;4.70;;;;;;;18.92;70.81;98335.71;1773439;77;21139;-88
2022/06/21 01:46:32;;;;;;;10.45;4.83;;;;;;;18.70;71.72;98324.03;1631328;82;21255;-87
2022/06/21 02:05:15;;;;;;;10.10;5.35;;;;;;;18.49;74.17;98319.34;1695722;81;21048;-89
2022/06/21 02:12:16;;;;;;;7.08;5.05;;;;;;;18.37;73.01;98310.98;1696535;80;21048;-88
2022/06/21 02:17:49;;;;;;;7.90;4.83;;;;;;;18.26;73.29;98314.83;1777368;77;21083;-87
2022/06/21 02:20:58;;;;;;;11.22;5.37;;;;;;;18.20;72.79;98312.62;1700253;84;21117;-90
2022/06/21 02:23:25;;;;;;;10.63;4.97;;;;;;;18.19;74.13;98315.73;1670751;85;21073;-93
2022/06/21 02:42:10;;;;;;;7.55;4.58;;;;;;;18.00;76.02;98282.42;1744030;80;21151;-89
2022/06/21 02:45:13;;;;;;;7.95;4.78;;;;;;;18.00;74.88;98287.20;1691398;84;21076;-92
2022/06/21 02:57:40;;;;;;;9.68;5.42;;;;;;;17.94;75.72;98276.27;1779055;79;21112;-92
2022/06/21 03:00:18;;;;;;;8.23;5.42;;;;;;;17.94;74.58;98285.00;1773730;80;20982;-91
2022/06/21 03:06:38;;;;;;;10.78;5.37;;;;;;;17.88;75.62;98268.33;1732471;79;21106;-92
2022/06/21 03:09:21;;;;;;;8.75;4.67;;;;;;;17.89;75.82;98272.17;1687655;85;21034;-91
2022/06/21 03:21:45;;;;;;;16.52;5.03;;;;;;;17.91;75.73;98254.98;1745475;81;21135;-93
2022/06/21 03:24:38;;;;;;;8.70;4.70;;;;;;;17.96;74.82;98252.86;1756183;81;21399;-92
2022/06/21 03:27:27;;;;;;;11.47;5.73;;;;;;;17.99;74.91;98253.15;1701732;83;21150;-91
2022/06/21 03:36:22;;;;;;;11.88;5.30;;;;;;;18.09;74.22;98275.23;1707130;81;21614;-87
2022/06/21 03:42:28;;;;;;;8.18;4.60;;;;;;;18.07;75.31;98271.38;1749610;79;21027;-88
2022/06/21 03:45:24;;;;;;;9.53;5.10;;;;;;;18.06;76.57;98267.09;1739690;79;21234;-84
2022/06/21 03:48:22;;;;;;;10.00;5.17;;;;;;;18.17;75.28;98262.38;1710966;83;21112;-93
2022/06/21 04:00:18;;;;;;;11.50;5.33;;;;;;;18.39;74.21;98289.84;1706875;80;21221;-88
2022/06/21 04:13:41;;;;;;;8.45;5.08;;;;;;;18.71;73.35;98281.45;1728956;83;21209;-88
2022/06/21 04:35:59;;;;;;;7.87;4.75;;;;;;;19.04;71.96;98311.15;1734610;77;21174;-89
2022/06/21 05:00:30;;;;;;;9.85;4.70;;;;;;;19.72;69.96;98304.89;1685512;81;21112;-89
2022/06/21 05:09:40;;;;;;;7.60;5.08;;;;;;;20.11;68.00;98299.67;1788469;77;21035;-89
2022/06/21 05:16:38;;;;;;;10.75;4.67;;;;;;;20.34;67.32;98301.03;1807895;78;21638;-87
2022/06/21 05:19:15;;;;;;;7.75;4.20;;;;;;;20.46;66.98;98304.85;1791415;80;21103;-87
2022/06/21 05:25:52;;;;;;;10.50;4.83;;;;;;;20.67;66.39;98302.83;1751102;78;21075;-89
2022/06/21 05:28:45;;;;;;;10.28;4.35;;;;;;;20.81;65.66;98291.16;1727440;83;21083;-88
2022/06/21 05:38:00;;;;;;;9.70;4.30;;;;;;;21.02;65.50;98289.94;1749306;82;21026;-88
2022/06/21 06:10:44;;;;;;;9.40;3.83;;;;;;;22.57;59.64;98325.95;1702032;80;21126;-86
2022/06/21 06:13:20;;;;;;;11.15;4.45;;;;;;;22.62;59.32;98349.38;1666406;85;21115;-83
2022/06/21 06:16:00;;;;;;;6.17;4.00;;;;;;;22.62;59.13;98330.84;1664675;85;21085;-86
2022/06/21 06:18:40;;;;;;;9.68;3.92;;;;;;;22.64;58.69;98329.75;1708595;81;22255;-83
2022/06/21 06:21:25;;;;;;;10.25;4.17;;;;;;;22.69;57.97;98330.67;1724557;82;21015;-86
2022/06/21 06:24:00;;;;;;;9.53;3.67;;;;;;;22.77;57.09;98330.00;1727523;83;21064;-86
2022/06/21 06:26:32;;;;;;;11.33;4.00;;;;;;;22.85;56.72;98315.59;1724223;83;21031;-85
2022/06/21 06:29:13;;;;;;;6.83;3.70;;;;;;;22.90;56.19;98315.17;1741773;80;21855;-86
2022/06/21 06:32:03;;;;;;;8.08;3.62;;;;;;;22.99;56.15;98321.00;1733390;80;21289;-87
2022/06/21 06:34:37;;;;;;;9.43;4.05;;;;;;;23.03;55.01;98334.36;1689644;83;21110;-85
2022/06/21 06:37:08;;;;;;;5.78;3.62;;;;;;;23.03;55.42;98338.33;1686735;83;21053;-88
2022/06/21 06:39:43;;;;;;;9.93;3.67;;;;;;;23.11;55.31;98331.86;1734750;81;21026;-85
2022/06/21 06:42:23;;;;;;;8.50;3.80;;;;;;;23.17;54.63;98333.96;1724959;82;21043;-86
2022/06/21 06:45:00;;;;;;;8.38;3.77;;;;;;;23.27;55.02;98325.20;1709748;82;21011;-81
2022/06/21 06:47:37;;;;;;;11.78;4.22;;;;;;;23.41;55.37;98312.84;1720431;82;21512;-80
2022/06/21 06:50:16;;;;;;;10.82;4.20;;;;;;;23.60;55.48;98312.86;1731096;81;21055;-81
2022/06/21 06:52:59;;;;;;;11.57;4.40;;;;;;;23.83;55.34;98305.95;1726310;81;21020;-85
2022/06/21 06:55:48;;;;;;;8.13;3.90;;;;;;;24.04;54.99;98308.44;1717133;82;20952;-84
2022/06/21 06:58:44;;;;;;;8.10;3.85;;;;;;;24.18;54.30;98304.48;1726260;82;21052;-84
2022/06/21 07:01:19;;;;;;;5.47;3.50;;;;;;;24.30;54.16;98309.97;1695788;83;21087;-85
2022/06/21 07:03:51;;;;;;;9.48;3.67;;;;;;;24.40;54.04;98304.13;1716018;81;20975;-85
2022/06/21 07:06:53;;;;;;;5.80;3.90;;;;;;;24.45;53.65;98302.34;1728793;80;20989;-83
2022/06/21 07:09:42;;;;;;;5.62;3.90;;;;;;;24.43;53.12;98300.33;1721906;82;21039;-84
2022/06/21 07:12:20;;;;;;;8.90;3.90;;;;;;;24.45;53.49;98304.18;1721335;82;20965;-83
2022/06/21 07:14:49;;;;;;;7.62;4.37;;;;;;;24.47;53.32;98318.16;1702223;82;21019;-81
2022/06/21 07:17:48;;;;;;;7.47;4.08;;;;;;;24.35;53.43;98317.49;1700729;82;21065;-84
2022/06/21 07:20:25;;;;;;;5.78;3.77;;;;;;;24.31;53.41;98314.31;1697794;82;21051;-84
2022/06/21 07:22:55;;;;;;;11.60;4.75;;;;;;;24.30;53.46;98323.25;1705063;82;21007;-84
2022/06/21 07:25:36;;;;;;;12.58;3.77;;;;;;;24.32;53.04;98326.59;1709382;82;21048;-85
2022/06/21 07:28:24;;;;;;;5.53;3.30;;;;;;;24.36;53.06;98327.98;1707711;82;21079;-83
2022/06/21 07:30:54;;;;;;;15.43;3.90;;;;;;;24.44;52.91;98337.06;1707996;82;21358;-84
2022/06/21 07:33:35;;;;;;;7.97;3.60;;;;;;;24.36;52.67;98331.14;1715085;82;21516;-83
2022/06/21 07:36:07;;;;;;;11.55;4.03;;;;;;;24.37;52.78;98331.00;1722578;82;21035;-82
2022/06/21 07:38:59;;;;;;;7.43;4.30;;;;;;;24.38;52.86;98331.33;1692097;82;20993;-82
2022/06/21 07:41:40;;;;;;;8.28;4.30;;;;;;;24.46;52.66;98336.42;1703703;82;21014;-84
2022/06/21 07:44:31;;;;;;;8.75;3.83;;;;;;;24.46;52.85;98337.25;1702335;82;21110;-83
2022/06/21 07:47:03;;;;;;;9.15;4.08;;;;;;;24.55;52.69;98343.53;1695127;82;21008;-82
2022/06/21 07:49:50;;;;;;;13.18;4.03;;;;;;;24.59;52.59;98350.22;1696254;82;21067;-81
2022/06/21 07:52:29;;;;;;;8.68;3.65;;;;;;;24.54;52.71;98347.19;1694672;82;21040;-81
2022/06/21 07:55:07;;;;;;;10.82;3.87;;;;;;;24.65;52.67;98347.48;1694858;82;21598;-79
2022/06/21 07:57:39;;;;;;;6.58;4.00;;;;;;;24.74;52.29;98358.58;1692331;82;21021;-82
2022/06/21 08:00:17;;;;;;;9.18;3.77;;;;;;;24.77;52.22;98354.28;1706207;82;21016;-83
2022/06/21 08:08:49;;;;;;;9.23;4.25;;;;;;;24.94;51.87;98365.97;1714852;82;20155;-83
2022/06/21 08:11:36;;;;;;;11.68;4.20;;;;;;;24.93;51.81;98361.15;1708463;82;21028;-83
2022/06/21 08:14:03;;;;;;;8.38;4.20;;;;;;;24.96;51.97;98366.16;1718123;81;21018;-83
2022/06/21 08:16:44;;;;;;;13.08;4.08;;;;;;;25.00;51.72;98366.20;1710858;81;21583;-84
2022/06/21 08:34:53;;;;;;;10.58;4.25;;;;;;;25.19;50.81;98381.23;1772664;78;21095;-90
2022/06/21 08:37:46;;;;;;;11.70;4.08;;;;;;;25.20;50.80;98374.08;1759091;81;21278;-89
2022/06/21 08:40:46;;;;;;;12.30;4.08;;;;;;;25.19;50.95;98374.58;1754049;81;20973;-89
2022/06/21 08:43:52;;;;;;;9.08;4.05;;;;;;;25.20;50.83;98369.59;1755664;80;21070;-89
2022/06/21 08:46:35;;;;;;;10.10;3.80;;;;;;;25.07;51.11;98362.48;1730257;82;21109;-89
2022/06/21 08:49:30;;;;;;;6.87;4.10;;;;;;;25.25;50.77;98368.34;1754880;79;21114;-89
2022/06/21 08:52:37;;;;;;;13.85;4.03;;;;;;;25.37;50.61;98357.34;1761781;80;20948;-89
2022/06/21 08:55:37;;;;;;;14.03;4.00;;;;;;;25.52;50.51;98360.31;1724201;81;21134;-89
2022/06/21 08:58:43;;;;;;;8.55;3.98;;;;;;;25.67;50.26;98361.96;1711549;82;21010;-89
2022/06/21 09:01:24;;;;;;;11.10;4.65;;;;;;;25.89;50.00;98358.49;1719221;82;21099;-89
2022/06/21 09:04:17;;;;;;;12.30;4.50;;;;;;;25.97;49.63;98361.25;1722720;82;21036;-88
2022/06/21 09:10:29;;;;;;;9.98;4.30;;;;;;;26.31;49.37;98353.33;1764051;78;21171;-90
2022/06/21 09:25:12;;;;;;;16.95;4.42;;;;;;;27.17;47.49;98335.07;1733629;78;21103;-90
2022/06/21 09:27:41;;;;;;;;;;;;;;;27.23;47.29;98322.91;1751490;77;20983;-89
2022/06/21 09:30:38;;;;;;;10.05;4.08;;;;;;;27.43;46.95;98324.81;1786857;78;20132;-89
2022/06/21 09:39:31;;;;;;;14.25;4.28;;;;;;;27.61;45.83;98321.17;1780268;78;21080;-86
2022/06/21 09:42:05;;;;;;;9.28;3.95;;;;;;;27.71;45.63;98311.16;1759940;77;21092;-88
2022/06/21 09:44:46;;;;;;;8.83;3.80;;;;;;;27.89;44.98;98315.84;1729554;77;21016;-89
2022/06/21 09:50:26;;;;;;;;;;;;;;;28.09;44.77;98311.02;1763114;78;21098;-86
2022/06/21 09:53:14;;;;;;;10.70;3.83;;;;;;;28.20;44.01;98316.49;1754164;82;20204;-87
2022/06/21 09:56:21;;;;;;;9.80;3.33;;;;;;;28.34;43.14;98306.43;1720027;83;20964;-88
2022/06/21 09:59:05;;;;;;;8.63;3.47;;;;;;;28.47;43.01;98305.05;1756644;80;21014;-87
2022/06/21 10:01:40;;;;;;;9.48;3.35;;;;;;;28.64;42.84;98293.84;1737266;82;21042;-88
2022/06/21 10:04:24;;;;;;;7.20;3.80;;;;;;;28.85;41.76;98318.64;1757038;81;21086;-85
2022/06/21 10:07:25;;;;;;;8.20;3.85;;;;;;;28.92;41.49;98316.43;1754085;81;21040;-88
2022/06/21 10:14:00;;;;;;;9.88;3.35;;;;;;;29.20;39.93;98303.94;1768235;77;21089;-90
2022/06/21 10:17:01;;;;;;;6.37;3.10;;;;;;;29.32;38.08;98300.34;1752314;81;21125;-87
2022/06/21 10:23:14;;;;;;;5.53;3.20;;;;;;;29.47;36.49;98311.97;1716516;77;21134;-85
2022/06/21 10:26:24;;;;;;;10.75;3.10;;;;;;;29.52;36.81;98322.95;1769859;81;21008;-86
2022/06/21 10:29:29;;;;;;;7.03;3.08;;;;;;;29.56;37.01;98320.76;1775170;81;21050;-88
2022/06/21 10:32:10;;;;;;;6.83;3.08;;;;;;;29.68;37.34;98319.31;1766436;80;21012;-87
2022/06/21 10:35:10;;;;;;;6.60;2.90;;;;;;;29.72;36.18;98328.72;1771838;81;21046;-86
2022/06/21 10:38:09;;;;;;;6.70;2.83;;;;;;;29.81;35.27;98319.27;1741912;79;21551;-87
2022/06/21 10:40:54;;;;;;;6.87;2.87;;;;;;;29.85;35.30;98312.54;1764425;81;21010;-87
2022/06/21 10:43:52;;;;;;;9.08;2.92;;;;;;;30.01;35.12;98317.74;1746025;80;20973;-89
2022/06/21 10:46:29;;;;;;;15.63;3.60;;;;;;;30.07;35.05;98314.84;1776779;81;21030;-89
2022/06/21 10:49:47;;;;;;;6.70;2.77;;;;;;;30.04;35.04;98302.66;1744916;80;21023;-89
2022/06/21 10:52:43;;;;;;;10.45;2.83;;;;;;;30.08;33.81;98320.03;1726475;80;21514;-87
2022/06/21 10:55:28;;;;;;;7.35;2.80;;;;;;;29.97;34.54;98308.41;1783140;79;21905;-90
2022/06/21 10:58:12;;;;;;;14.68;3.33;;;;;;;29.99;34.33;98313.59;1757561;79;21228;-89
2022/06/21 11:01:23;;;;;;;5.15;2.72;;;;;;;29.94;34.57;98317.65;1756995;78;21213;-89
2022/06/21 11:04:18;;;;;;;6.05;2.67;;;;;;;29.82;34.41;98328.45;1723107;78;21102;-90
2022/06/21 11:06:53;;;;;;;5.60;2.87;;;;;;;30.01;34.42;98316.92;1677544;82;21067;-88
2022/06/21 11:09:58;;;;;;;5.55;2.98;;;;;;;30.10;34.36;98318.48;1700985;78;21095;-90
2022/06/21 11:18:37;;;;;;;6.87;2.67;;;;;;;30.13;34.52;98343.09;1741399;77;21152;-89
2022/06/21 11:21:50;;;;;;;7.08;3.08;;;;;;;30.18;34.69;98342.53;1708856;78;21094;-91
2022/06/21 11:24:56;;;;;;;11.25;3.00;;;;;;;30.15;34.61;98332.19;1706311;80;21059;-89
2022/06/21 11:28:12;;;;;;;7.85;3.30;;;;;;;30.23;34.04;98326.74;1760508;79;21070;-89
2022/06/21 11:30:59;;;;;;;10.95;2.75;;;;;;;30.13;33.46;98336.38;1788579;79;21032;-89
2022/06/21 11:36:38;;;;;;;6.42;2.90;;;;;;;30.17;33.87;98334.69;1772604;78;21191;-88
2022/06/21 11:45:37;;;;;;;6.65;2.20;;;;;;;30.55;31.75;98343.53;1805245;77;21055;-90
2022/06/21 11:48:34;;;;;;;8.63;2.20;;;;;;;30.58;31.59;98341.83;1718458;78;21117;31
2022/06/21 11:54:30;;;;;;;4.25;2.15;;;;;;;30.48;30.75;98339.91;1737625;77;21123;-90
2022/06/21 12:10:10;;;;;;;4.75;2.00;;;;;;;30.71;27.95;98337.97;1755258;77;21032;-92
2022/06/21 12:16:19;;;;;;;;;;;;;;;;;;;;;
2022/06/21 12:22:37;;;;;;;7.75;1.80;;;;;;;31.10;27.94;98327.45;1729520;77;21105;-86
2022/06/21 12:25:17;;;;;;;6.80;1.90;;;;;;;31.39;27.67;98327.55;1750976;77;21069;-91
2022/06/21 12:34:40;;;;;;;8.33;1.98;;;;;;;32.02;23.98;98329.12;1742746;77;22485;-91
2022/06/21 12:37:17;;;;;;;5.53;1.95;;;;;;;32.40;23.41;98319.34;1747694;77;21122;-87
2022/06/21 12:39:56;;;;;;;9.15;1.80;;;;;;;32.75;23.09;98331.45;1742605;80;20980;-87
2022/06/21 13:15:30;;;;;;;2.92;1.30;;;;;;;35.36;17.46;98314.23;1778086;76;21084;-88
2022/06/21 13:18:28;;;;;;;5.03;1.47;;;;;;;35.55;16.03;98331.34;1757254;79;21035;-92
2022/06/21 13:21:45;;;;;;;7.00;1.40;;;;;;;35.48;15.27;98322.48;1680440;77;21068;-92
2022/06/21 13:24:56;;;;;;;4.87;1.40;;;;;;;35.55;15.12;98323.24;1698469;84;21032;-90
2022/06/21 13:27:41;;;;;;;5.10;1.30;;;;;;;35.45;12.87;98331.33;1704440;83;21016;-91
2022/06/21 13:30:48;;;;;;;4.72;1.10;;;;;;;35.45;12.87;98331.33;1700815;84;21032;-91
2022/06/21 13:33:23;;;;;;;6.03;1.40;;;;;;;35.64;12.81;98317.88;1686454;83;21076;-91
2022/06/21 13:36:10;;;;;;;5.37;1.57;;;;;;;36.15;13.67;98316.90;1701902;84;21016;-91
2022/06/21 13:38:57;;;;;;;3.77;1.35;;;;;;;35.97;12.77;98323.56;1686042;83;21023;-90
2022/06/21 13:44:45;;;;;;;5.47;1.40;;;;;;;36.35;13.68;98328.03;1691749;83;21016;-92
2022/06/21 13:47:26;;;;;;;6.17;1.20;;;;;;;36.49;11.82;98318.74;1711647;83;21055;-89
2022/06/21 13:50:21;;;;;;;2.87;1.40;;;;;;;36.46;11.75;98312.41;1677976;84;21125;-87
2022/06/21 13:53:28;;;;;;;5.97;1.10;;;;;;;36.54;10.73;98318.88;1707696;83;22280;-89
2022/06/21 13:56:14;;;;;;;1.67;0.98;;;;;;;36.01;10.44;98325.63;1700585;84;21103;-90
2022/06/21 14:02:43;;;;;;;2.98;1.20;;;;;;;35.57;10.58;98325.20;1694979;83;21000;-91
2022/06/21 14:05:55;;;;;;;2.02;0.93;;;;;;;35.40;11.11;98320.33;1738427;81;21050;-88
2022/06/21 14:08:57;;;;;;;3.35;1.05;;;;;;;35.64;9.48;98317.88;1737523;81;21144;-91
2022/06/21 14:11:58;;;;;;;2.85;1.52;;;;;;;35.21;9.84;98315.87;1724694;80;20998;-89
2022/06/21 14:15:03;;;;;;;1.90;0.90;;;;;;;35.30;10.17;98319.98;1744869;81;20992;-89
2022/06/21 14:17:38;;;;;;;2.77;1.10;;;;;;;35.07;10.26;98317.78;1782260;79;21175;-87
2022/06/21 14:20:18;;;;;;;3.30;1.00;;;;;;;35.36;9.53;98322.34;1781282;79;20997;-74
2022/06/21 14:23:06;;;;;;;5.15;1.98;;;;;;;35.43;9.35;98319.88;1783197;79;21740;-72
2022/06/21 14:25:41;;;;;;;2.70;1.00;;;;;;;35.49;9.40;98316.01;1782421;79;21047;-70
2022/06/21 14:28:49;;;;;;;3.75;1.15;;;;;;;35.49;9.40;98316.01;1781671;79;20999;-70
2022/06/21 14:31:41;;;;;;;7.78;1.10;;;;;;;34.69;9.22;98328.54;1783586;79;20928;-70
2022/06/21 14:34:26;;;;;;;4.70;1.07;;;;;;;34.25;8.97;98318.75;1780817;79;21078;-69
2022/06/21 14:37:16;;;;;;;2.25;1.00;;;;;;;34.25;8.97;98318.75;1781021;79;21502;-71
2022/06/21 14:40:09;;;;;;;3.77;1.20;;;;;;;34.39;9.12;98303.36;1780294;79;20981;-70
2022/06/21 14:42:52;;;;;;;2.15;1.20;;;;;;;34.51;10.10;98309.77;1782254;79;21037;-73
2022/06/21 14:46:02;;;;;;;4.45;1.35;;;;;;;34.28;10.23;98321.01;1787914;79;21037;-72
2022/06/21 14:49:07;;;;;;;3.95;0.95;;;;;;;34.18;10.54;98316.08;1784018;79;21611;-69
2022/06/21 14:51:55;;;;;;;3.83;1.55;;;;;;;34.28;10.88;98304.83;1788316;79;21105;-71
2022/06/21 14:54:44;;;;;;;3.45;1.15;;;;;;;34.16;10.71;98307.36;1782567;79;21476;-71
2022/06/21 14:57:41;;;;;;;2.05;1.10;;;;;;;34.31;11.01;98296.85;1785167;79;21019;-71
2022/06/21 15:00:34;;;;;;;2.92;1.10;;;;;;;34.52;10.55;98307.39;1784055;79;21022;-71
2022/06/21 15:03:30;;;;;;;3.52;1.15;;;;;;;34.42;10.19;98302.43;1783240;79;21566;-71
2022/06/21 15:06:11;;;;;;;2.30;1.20;;;;;;;34.19;10.19;98298.83;1782345;79;21023;-71
2022/06/21 15:08:52;;;;;;;6.25;1.57;;;;;;;33.79;10.29;98308.27;1786133;79;20986;-70
2022/06/21 15:11:52;;;;;;;2.80;1.30;;;;;;;33.81;10.39;98304.84;1786545;79;20982;-69
2022/06/21 15:14:00;;;;;;;3.22;1.20;;;;;;;32.97;10.53;98307.45;1791495;79;20953;-69
2022/06/21 15:16:34;;;;;;;3.50;0.95;;;;;;;32.78;10.64;98304.16;1774089;79;21004;-68
2022/06/21 15:22:00;;;;;;;2.58;1.22;;;;;;;32.92;10.77;98308.55;1757374;80;21538;-70
2022/06/21 15:24:32;;;;;;;2.25;1.10;;;;;;;32.86;10.31;98310.70;1782558;79;20954;-71
2022/06/21 15:27:04;;;;;;;6.28;1.27;;;;;;;32.56;10.69;98307.47;1707837;82;20973;-70
2022/06/21 15:29:39;;;;;;;2.35;1.10;;;;;;;32.64;10.81;98312.16;1722703;81;20972;-70
2022/06/21 15:32:11;;;;;;;4.92;1.45;;;;;;;32.44;11.14;98311.20;1722337;81;21063;-70
2022/06/21 15:34:47;;;;;;;;;;;;;;;32.56;10.48;98308.81;1729520;81;20944;-70
2022/06/21 15:37:37;;;;;;;1.77;0.80;;;;;;;32.56;10.08;98315.02;1726043;81;20150;-70
2022/06/21 15:40:24;;;;;;;3.75;1.07;;;;;;;32.63;10.35;98313.20;1761083;79;20944;-70
2022/06/21 15:43:32;;;;;;;4.45;0.90;;;;;;;32.42;9.71;98326.70;1769343;79;21034;-70
2022/06/21 15:46:22;;;;;;;3.70;1.05;;;;;;;32.23;9.93;98316.13;1778610;79;21003;-71
2022/06/21 15:51:59;;;;;;;4.53;1.10;;;;;;;31.74;10.17;98321.83;1776004;79;21576;-81
2022/06/21 15:54:46;;;;;;;2.83;0.85;;;;;;;31.55;10.06;98327.84;1774691;79;21030;-77
2022/06/21 15:57:30;;;;;;;5.55;1.00;;;;;;;31.08;9.25;98334.86;1762841;79;21000;-80
2022/06/21 16:00:31;;;;;;;6.12;0.80;;;;;;;31.05;9.45;98331.20;1773502;79;20984;-80
2022/06/21 16:03:06;;;;;;;2.55;1.37;;;;;;;30.81;9.52;98335.00;1772019;79;21055;-80
2022/06/21 16:05:44;;;;;;;3.42;0.62;;;;;;;30.41;9.56;98328.27;1772512;79;20962;-83
2022/06/21 16:08:27;;;;;;;7.20;1.00;;;;;;;30.32;10.08;98320.80;1767888;79;20987;-84
2022/06/21 16:10:54;;;;;;;3.10;0.80;;;;;;;30.28;9.71;98329.72;1778402;79;21030;-79
2022/06/21 16:13:34;;;;;;;5.10;0.98;;;;;;;30.31;10.23;98326.69;1756300;80;21102;-82
2022/06/21 16:16:05;;;;;;;3.60;0.85;;;;;;;30.24;9.98;98322.20;1730824;81;21083;-77
2022/06/21 16:18:43;;;;;;;3.77;0.90;;;;;;;30.21;10.20;98319.91;1718715;82;21042;-78
2022/06/21 16:21:30;;;;;;;2.65;1.00;;;;;;;30.29;10.84;98308.58;1698044;83;20968;-79
2022/06/21 16:24:08;;;;;;;2.55;1.05;;;;;;;30.36;10.94;98315.39;1725865;81;21051;-78
2022/06/21 16:27:04;;;;;;;6.25;1.02;;;;;;;30.29;11.22;98310.44;1714284;83;21015;-78
2022/06/21 16:29:48;;;;;;;5.85;1.25;;;;;;;30.15;11.75;98316.11;1724066;83;21408;-80
2022/06/21 16:35:20;;;;;;;3.98;0.90;;;;;;;30.27;12.22;98314.63;1769611;79;21490;-78
2022/06/21 16:37:58;;;;;;;5.47;1.02;;;;;;;30.24;12.38;98316.36;1773691;79;20967;-77
2022/06/21 16:43:20;;;;;;;3.35;1.10;;;;;;;30.04;12.55;98313.86;1761413;80;21117;-80
2022/06/21 16:46:00;;;;;;;4.78;1.10;;;;;;;29.94;12.59;98314.97;1768870;80;21041;-79
2022/06/21 16:48:47;;;;;;;7.37;1.20;;;;;;;30.06;12.68;98314.02;1777191;78;21002;-77
2022/06/21 16:51:36;;;;;;;4.25;1.22;;;;;;;30.11;12.96;98318.31;1782696;79;20955;-78
2022/06/21 16:54:03;;;;;;;4.30;0.90;;;;;;;30.29;14.03;98317.96;1772505;80;21034;-80
2022/06/21 16:56:42;;;;;;;8.03;1.12;;;;;;;30.35;14.88;98316.43;1781393;79;20954;-79
2022/06/21 16:59:15;;;;;;;6.60;1.00;;;;;;;30.40;15.85;98304.66;1771241;79;21502;-80
2022/06/21 17:01:52;;;;;;;5.42;1.55;;;;;;;30.29;14.64;98314.45;1733487;82;21008;-79
2022/06/21 17:04:27;;;;;;;5.08;1.12;;;;;;;30.47;15.18;98307.42;1736852;81;21462;-80
2022/06/21 17:06:59;;;;;;;5.65;1.15;;;;;;;30.44;16.40;98311.31;1744008;81;20981;-78
2022/06/21 17:09:33;;;;;;;2.42;1.07;;;;;;;30.54;16.54;98311.04;1729723;82;21032;-78
2022/06/21 17:12:12;;;;;;;7.30;1.32;;;;;;;30.36;15.78;98311.89;1740222;81;20989;-78
2022/06/21 17:14:51;;;;;;;3.65;1.20;;;;;;;30.23;15.14;98315.20;1719719;81;20995;-78
2022/06/21 17:17:55;;;;;;;3.90;1.17;;;;;;;30.22;14.92;98311.69;1724346;81;21503;-78
2022/06/21 17:20:49;;;;;;;5.90;1.80;;;;;;;30.20;14.43;98311.05;1771287;80;21467;-78
2022/06/21 17:23:47;;;;;;;4.80;1.30;;;;;;;30.16;14.47;98304.87;1739144;81;20986;-78
2022/06/21 17:26:27;;;;;;;5.35;1.25;;;;;;;30.03;14.47;98312.21;1728492;81;20960;-78
2022/06/21 17:28:58;;;;;;;3.47;0.95;;;;;;;29.89;14.43;98310.65;1750684;80;20995;-78
2022/06/21 17:31:52;;;;;;;3.05;1.20;;;;;;;29.85;14.72;98317.38;1725759;82;20999;-79
2022/06/21 17:34:27;;;;;;;5.45;1.77;;;;;;;29.89;14.67;98316.01;1769331;79;21051;-79
2022/06/21 17:37:14;;;;;;;5.10;1.65;;;;;;;29.92;14.94;98319.67;1750421;80;21034;-80
2022/06/21 17:40:05;;;;;;;3.75;1.50;;;;;;;29.87;14.35;98322.05;1773645;79;20959;-77
2022/06/21 17:42:42;;;;;;;6.78;1.20;;;;;;;29.68;14.44;98319.31;1782330;79;20982;-77
2022/06/21 17:45:17;;;;;;;6.90;1.47;;;;;;;29.46;14.56;98311.63;1773781;79;20983;-77
2022/06/21 17:47:52;;;;;;;2.50;1.10;;;;;;;29.17;14.39;98325.72;1772876;79;20970;-77
2022/06/21 17:50:24;;;;;;;2.27;0.80;;;;;;;28.51;14.39;98321.97;1775383;80;21458;-76
2022/06/21 17:53:02;;;;;;;2.92;1.20;;;;;;;28.17;14.92;98326.17;1775834;79;20963;-77
2022/06/21 17:55:49;;;;;;;2.55;1.05;;;;;;;27.78;15.17;98328.19;1742098;81;21001;-77
2022/06/21 17:58:42;;;;;;;4.15;1.10;;;;;;;27.42;15.32;98333.02;1746134;81;20936;-77
2022/06/21 18:01:34;;;;;;;;;;;;;;;27.10;15.40;98337.25;1720896;81;21111;-77
2022/06/21 18:04:24;;;;;;;5.28;1.02;;;;;;;26.71;15.78;98336.42;1711364;81;20104;-77
2022/06/21 18:07:02;;;;;;;6.83;1.45;;;;;;;26.27;16.06;98340.48;1724731;81;20995;-78
2022/06/21 18:09:37;;;;;;;5.05;1.65;;;;;;;25.94;16.15;98342.43;1725690;81;20960;-77
2022/06/21 18:12:29;;;;;;;5.15;1.70;;;;;;;25.72;16.17;98340.20;1714366;81;20988;-77
2022/06/21 18:14:57;;;;;;;2.92;1.30;;;;;;;25.46;16.38;98330.31;1691977;81;21003;-77
2022/06/21 18:17:48;;;;;;;6.53;1.75;;;;;;;25.20;16.80;98349.64;1723730;81;20979;-76
2022/06/21 18:20:32;;;;;;;6.67;1.30;;;;;;;25.00;16.88;98341.45;1724523;81;21112;-77
2022/06/21 18:23:16;;;;;;;3.45;1.10;;;;;;;24.84;17.12;98336.77;1721303;81;21027;-77
2022/06/21 18:26:27;;;;;;;6.55;1.20;;;;;;;24.69;17.00;98336.44;1770308;79;21003;-77
2022/06/21 18:29:15;;;;;;;1.90;1.10;;;;;;;24.53;17.51;98338.39;1756729;79;20974;-77
2022/06/21 18:32:07;;;;;;;9.35;1.22;;;;;;;24.34;18.18;98347.20;1774613;79;20978;-77
2022/06/21 18:34:37;;;;;;;5.22;1.30;;;;;;;24.17;18.46;98347.94;1777092;79;20939;-77
2022/06/21 18:37:39;;;;;;;3.45;1.30;;;;;;;24.00;19.43;98346.87;1737739;81;20993;-77
2022/06/21 18:40:46;;;;;;;4.28;1.30;;;;;;;23.82;19.71;98351.56;1719637;82;21504;-77
2022/06/21 18:43:33;;;;;;;3.45;1.60;;;;;;;23.58;20.66;98347.98;1770908;79;21001;-77
2022/06/21 18:46:23;;;;;;;9.20;2.55;;;;;;;23.39;21.51;98370.00;1815338;78;20968;-77
2022/06/21 18:49:12;;;;;;;7.35;1.60;;;;;;;23.21;23.05;98385.74;1784958;78;20962;-77
2022/06/21 18:52:03;;;;;;;9.93;1.60;;;;;;;23.00;23.12;98387.63;1782307;78;20936;-76
2022/06/21 18:54:56;;;;;;;4.35;1.30;;;;;;;22.83;22.39;98395.22;1776269;79;21423;-77
2022/06/21 18:57:43;;;;;;;4.33;1.90;;;;;;;22.65;23.41;98394.16;1780164;80;20966;-77
2022/06/21 19:00:25;;;;;;;3.55;1.55;;;;;;;22.44;24.52;98399.48;1775661;79;20947;-77
2022/06/21 19:03:16;;;;;;;8.65;1.90;;;;;;;22.32;23.70;98404.50;1777685;79;21069;-77
2022/06/21 19:09:20;;;;;;;3.85;1.50;;;;;;;21.96;25.26;98410.55;1779793;79;20966;-76
2022/06/21 19:12:04;;;;;;;8.63;1.30;;;;;;;21.71;25.99;98418.36;1779414;79;21479;-77
2022/06/21 19:14:56;;;;;;;2.35;1.40;;;;;;;21.58;24.90;98424.63;1770279;79;20978;-77
2022/06/21 19:17:48;;;;;;;5.70;1.45;;;;;;;21.48;24.87;98427.66;1762345;78;21035;-77
2022/06/21 19:20:43;;;;;;;3.77;1.55;;;;;;;21.38;25.34;98434.14;1785241;78;21430;-77
2022/06/21 19:23:27;;;;;;;3.40;1.40;;;;;;;21.25;25.11;98425.04;1795442;78;20971;-76
2022/06/21 19:26:27;;;;;;;3.27;1.10;;;;;;;21.21;24.62;98428.06;1786546;78;20978;-78
2022/06/21 19:29:31;;;;;;;3.67;1.37;;;;;;;21.18;24.44;98426.97;1762530;79;21521;-78
2022/06/21 19:32:07;;;;;;;;;;;;;;;21.13;24.18;98435.27;1793856;78;21603;-78
2022/06/21 19:35:03;;;;;;;4.20;1.17;;;;;;;21.09;24.07;98431.65;1786089;80;20470;-76
2022/06/21 19:37:50;;;;;;;2.27;1.07;;;;;;;21.04;24.21;98439.46;1784273;78;20974;-76
2022/06/21 19:40:34;;;;;;;2.22;1.00;;;;;;;21.00;24.40;98449.91;1741222;80;21008;-78
2022/06/21 19:43:34;;;;;;;5.55;1.67;;;;;;;20.94;24.27;98448.24;1754115;81;20975;-76
2022/06/21 19:46:31;;;;;;;2.33;1.05;;;;;;;20.89;24.18;98454.34;1774371;79;21002;-76
2022/06/21 19:49:03;;;;;;;4.60;1.00;;;;;;;20.84;24.30;98457.36;1754227;81;21038;-77
2022/06/21 19:51:53;;;;;;;4.78;1.20;;;;;;;20.75;24.70;98458.92;1772936;79;20947;-75
2022/06/21 19:54:48;;;;;;;6.20;1.40;;;;;;;20.66;24.91;98460.45;1768502;79;20936;-76
2022/06/21 19:57:29;;;;;;;3.70;1.50;;;;;;;20.62;25.30;98458.17;1784634;78;20942;-76
2022/06/21 20:00:19;;;;;;;5.80;1.50;;;;;;;20.57;24.92;98467.75;1791762;78;20938;-77
2022/06/21 20:02:51;;;;;;;6.30;1.10;;;;;;;20.50;24.99;98465.69;1751018;81;21041;-76